createdAt,value
2022-08-17T00:01:27.350Z,41.66
2022-08-17T00:03:58.248Z,41.30
2022-08-17T00:06:31.372Z,41.04
2022-08-17T00:09:02.369Z,41.65
2022-08-17T00:11:34.295Z,41.29
2022-08-17T00:14:13.256Z,41.57
2022-08-17T00:16:53.431Z,40.83
2022-08-17T00:19:23.534Z,40.72
2022-08-17T00:22:33.039Z,41.07
2022-08-17T00:24:25.465Z,40.93
2022-08-17T00:26:55.177Z,41.16
2022-08-17T00:29:24.940Z,40.66
2022-08-17T00:31:54.464Z,40.30
2022-08-17T00:34:25.612Z,40.17
2022-08-17T00:36:57.054Z,40.84
2022-08-17T00:39:26.817Z,40.46
2022-08-17T00:41:56.484Z,40.43
2022-08-17T00:44:28.857Z,39.95
2022-08-17T00:46:59.558Z,39.84
2022-08-17T00:49:30.273Z,40.23
2022-08-17T00:52:04.030Z,40.03
2022-08-17T00:54:41.692Z,40.11
2022-08-17T00:57:13.642Z,40.08
2022-08-17T00:59:55.935Z,39.65
2022-08-17T01:02:20.763Z,39.39
2022-08-17T01:04:54.501Z,39.95
2022-08-17T01:07:24.777Z,40.29
2022-08-17T01:09:55.568Z,39.80
2022-08-17T01:12:25.604Z,39.43
2022-08-17T01:14:55.186Z,39.23
2022-08-17T01:17:24.816Z,39.41
2022-08-17T01:19:54.538Z,39.43
2022-08-17T01:22:27.065Z,39.78
2022-08-17T01:25:01.741Z,39.65
2022-08-17T01:27:31.349Z,39.52
2022-08-17T01:30:02.416Z,39.23
2022-08-17T01:32:32.141Z,39.27
2022-08-17T01:35:04.197Z,39.75
2022-08-17T01:37:37.830Z,39.20
2022-08-17T01:40:17.221Z,38.93
2022-08-17T01:42:56.021Z,38.79
2022-08-17T01:45:28.608Z,38.74
2022-08-17T01:47:58.549Z,39.18
2022-08-17T01:50:32.957Z,38.82
2022-08-17T01:53:07.594Z,38.63
2022-08-17T01:55:42.731Z,38.42
2022-08-17T01:58:12.675Z,38.19
2022-08-17T02:00:59.726Z,38.46
2022-08-17T02:03:14.949Z,38.67
2022-08-17T02:05:44.563Z,38.43
2022-08-17T02:08:20.094Z,38.33
2022-08-17T02:10:49.536Z,38.22
2022-08-17T02:16:08.606Z,38.78
2022-08-17T02:18:42.714Z,38.32
2022-08-17T02:21:14.456Z,38.05
2022-08-17T02:23:55.533Z,37.99
2022-08-17T02:26:32.569Z,37.67
2022-08-17T02:29:16.555Z,38.30
2022-08-17T02:31:51.615Z,38.12
2022-08-17T02:34:26.593Z,38.17
2022-08-17T02:37:04.299Z,38.56
2022-08-17T02:39:37.152Z,38.72
2022-08-17T02:42:12.116Z,39.41
2022-08-17T02:44:46.813Z,39.35
2022-08-17T02:47:22.334Z,40.53
2022-08-17T02:49:54.253Z,39.95
2022-08-17T02:53:01.712Z,39.83
2022-08-17T02:54:58.823Z,40.05
2022-08-17T02:57:29.232Z,40.13
2022-08-17T03:00:04.355Z,41.36
2022-08-17T03:02:35.712Z,40.79
2022-08-17T03:05:11.852Z,40.52
2022-08-17T03:07:51.804Z,40.37
2022-08-17T03:10:22.314Z,40.33
2022-08-17T03:12:52.356Z,40.30
2022-08-17T03:15:28.256Z,40.32
2022-08-17T03:17:59.713Z,40.36
2022-08-17T03:20:30.154Z,40.37
2022-08-17T03:23:02.804Z,40.39
2022-08-17T03:25:33.087Z,40.43
2022-08-17T03:28:04.218Z,40.46
2022-08-17T03:30:33.730Z,40.48
2022-08-17T03:33:04.147Z,40.50
2022-08-17T03:35:34.798Z,40.78
2022-08-17T03:38:04.819Z,41.06
2022-08-17T03:40:59.092Z,40.88
2022-08-17T03:43:10.393Z,40.81
2022-08-17T03:45:57.487Z,40.77
2022-08-17T03:48:46.738Z,40.80
2022-08-17T03:51:37.053Z,40.82
2022-08-17T03:54:24.638Z,41.39
2022-08-17T03:57:05.956Z,41.29
2022-08-17T03:59:35.587Z,41.15
2022-08-17T04:02:11.950Z,41.10
2022-08-17T04:04:41.826Z,41.09
2022-08-17T04:07:11.610Z,41.40
2022-08-17T04:09:41.220Z,41.95
2022-08-17T04:12:11.005Z,41.46
2022-08-17T04:14:51.542Z,41.35
2022-08-17T04:17:12.253Z,41.29
2022-08-17T04:19:41.832Z,41.28
2022-08-17T04:22:11.379Z,41.49
2022-08-17T04:24:42.619Z,41.68
2022-08-17T04:27:13.975Z,41.58
2022-08-17T04:29:54.375Z,41.48
2022-08-17T04:32:14.857Z,41.44
2022-08-17T04:34:44.555Z,41.44
2022-08-17T04:37:14.369Z,41.83
2022-08-17T04:39:45.466Z,41.87
2022-08-17T04:42:16.769Z,41.76
2022-08-17T04:44:46.786Z,41.67
2022-08-17T04:47:17.840Z,41.61
2022-08-17T04:49:47.957Z,41.77
2022-08-17T04:52:29.720Z,42.64
2022-08-17T04:54:55.599Z,42.01
2022-08-17T04:57:25.289Z,41.89
2022-08-17T04:59:54.777Z,41.81
2022-08-17T05:02:24.411Z,41.74
2022-08-17T05:04:54.221Z,41.70
2022-08-17T05:07:29.550Z,42.11
2022-08-17T05:09:56.313Z,42.00
2022-08-17T05:12:26.022Z,41.90
2022-08-17T05:14:55.581Z,41.86
2022-08-17T05:17:25.526Z,42.03
2022-08-17T05:19:55.190Z,42.39
2022-08-17T05:22:24.890Z,42.17
2022-08-17T05:24:55.611Z,42.08
2022-08-17T05:27:25.447Z,42.02
2022-08-17T05:29:56.587Z,41.98
2022-08-17T05:32:39.111Z,41.71
2022-08-17T05:35:03.042Z,42.62
2022-08-17T05:37:32.789Z,42.26
2022-08-17T05:40:02.496Z,42.19
2022-08-17T05:42:32.231Z,42.17
2022-08-17T05:45:03.190Z,42.13
2022-08-17T05:47:32.785Z,41.97
2022-08-17T05:50:02.689Z,42.52
2022-08-17T05:53:00.098Z,42.38
2022-08-17T05:55:38.215Z,42.31
2022-08-17T05:58:11.054Z,42.26
2022-08-17T06:00:46.579Z,42.08
2022-08-17T06:03:37.841Z,42.92
2022-08-17T06:06:15.897Z,42.54
2022-08-17T06:08:58.615Z,42.45
2022-08-17T06:11:54.046Z,42.38
2022-08-17T06:14:34.262Z,42.43
2022-08-17T06:17:09.865Z,43.38
2022-08-17T06:19:46.088Z,42.78
2022-08-17T06:22:16.463Z,42.74
2022-08-17T06:24:54.105Z,42.64
2022-08-17T06:27:59.770Z,42.64
2022-08-17T06:30:36.720Z,42.32
2022-08-17T06:33:06.456Z,42.81
2022-08-17T06:35:41.679Z,42.69
2022-08-17T06:38:37.767Z,42.58
2022-08-17T06:41:11.299Z,42.53
2022-08-17T06:44:43.551Z,42.50
2022-08-17T06:46:50.854Z,43.14
2022-08-17T06:49:27.282Z,42.85
2022-08-17T06:52:11.900Z,42.76
2022-08-17T06:54:48.928Z,42.67
2022-08-17T06:57:25.843Z,42.59
2022-08-17T07:00:04.740Z,42.51
2022-08-17T07:03:01.368Z,43.52
2022-08-17T07:05:37.330Z,43.00
2022-08-17T07:08:44.516Z,42.82
2022-08-17T07:11:22.897Z,42.74
2022-08-17T07:14:17.148Z,42.74
2022-08-17T07:16:52.743Z,42.29
2022-08-17T07:19:27.354Z,43.10
2022-08-17T07:22:18.491Z,42.99
2022-08-17T07:25:01.994Z,42.88
2022-08-17T07:27:43.509Z,42.80
2022-08-17T07:30:25.122Z,42.77
2022-08-17T07:32:59.927Z,42.67
2022-08-17T07:35:40.848Z,43.55
2022-08-17T07:38:25.107Z,43.13
2022-08-17T07:41:03.510Z,43.03
2022-08-17T07:43:50.721Z,42.92
2022-08-17T07:46:45.507Z,42.85
2022-08-17T07:49:15.940Z,42.95
2022-08-17T07:54:24.941Z,43.34
2022-08-17T07:56:59.202Z,43.18
2022-08-17T07:59:36.188Z,43.08
2022-08-17T08:02:11.610Z,42.99
2022-08-17T08:05:01.852Z,42.94
2022-08-17T08:07:23.361Z,43.16
2022-08-17T08:10:06.165Z,42.87
2022-08-17T08:12:41.132Z,43.32
2022-08-17T08:15:23.180Z,43.22
2022-08-17T08:17:58.332Z,43.13
2022-08-17T08:20:40.823Z,43.05
2022-08-17T08:23:33.119Z,43.00
2022-08-17T08:26:18.437Z,43.37
2022-08-17T08:28:48.757Z,43.42
2022-08-17T08:31:30.489Z,43.46
2022-08-17T08:34:03.481Z,43.28
2022-08-17T08:37:14.526Z,43.18
2022-08-17T08:39:38.632Z,43.13
2022-08-17T08:42:33.667Z,43.07
2022-08-17T08:45:24.467Z,43.28
2022-08-17T08:47:56.948Z,43.17
2022-08-17T08:50:43.658Z,43.54
2022-08-17T08:53:16.206Z,43.39
2022-08-17T08:55:54.537Z,43.28
2022-08-17T08:58:49.994Z,43.20
2022-08-17T09:01:34.965Z,43.17
2022-08-17T09:04:23.722Z,42.78
2022-08-17T09:06:48.659Z,43.87
2022-08-17T09:09:39.768Z,43.58
2022-08-17T09:12:31.270Z,43.45
2022-08-17T09:15:21.653Z,43.37
2022-08-17T09:18:14.599Z,43.31
2022-08-17T09:20:32.137Z,43.25
2022-08-17T09:23:12.419Z,43.22
2022-08-17T09:25:51.080Z,43.36
2022-08-17T09:28:24.873Z,43.58
2022-08-17T09:30:55.394Z,43.68
2022-08-17T09:33:27.214Z,43.56
2022-08-17T09:35:59.890Z,43.46
2022-08-17T09:38:35.436Z,43.38
2022-08-17T09:41:08.021Z,43.34
2022-08-17T09:43:46.680Z,43.29
2022-08-17T09:46:21.939Z,43.12
2022-08-17T09:49:25.281Z,43.12
2022-08-17T09:52:03.335Z,43.78
2022-08-17T09:54:39.235Z,43.64
2022-08-17T09:57:31.688Z,43.53
2022-08-17T10:00:13.984Z,43.46
2022-08-17T10:03:20.514Z,43.38
2022-08-17T10:06:07.893Z,43.32
2022-08-17T10:08:44.610Z,43.33
2022-08-17T10:11:57.669Z,42.69
2022-08-17T10:15:07.610Z,43.79
2022-08-17T10:17:36.582Z,43.62
2022-08-17T10:20:24.430Z,43.37
2022-08-17T10:23:16.192Z,43.32
2022-08-17T10:26:07.341Z,43.34
2022-08-17T10:28:42.812Z,43.31
2022-08-17T10:34:06.150Z,43.25
2022-08-17T10:36:41.668Z,42.63
2022-08-17T10:39:26.103Z,43.71
2022-08-17T10:41:58.305Z,43.66
2022-08-17T10:44:41.248Z,43.42
2022-08-17T10:47:19.904Z,43.26
2022-08-17T10:49:57.473Z,43.14
2022-08-17T10:52:32.946Z,43.07
2022-08-17T10:55:17.394Z,43.01
2022-08-17T10:57:51.503Z,42.98
2022-08-17T11:00:27.721Z,42.98
2022-08-17T11:02:58.082Z,42.77
2022-08-17T11:05:45.390Z,43.82
2022-08-17T11:08:40.869Z,43.57
2022-08-17T11:11:34.034Z,43.01
2022-08-17T11:14:32.714Z,42.87
2022-08-17T11:17:08.062Z,42.83
2022-08-17T11:20:09.232Z,42.84
2022-08-17T11:22:53.684Z,42.86
2022-08-17T11:25:26.865Z,42.84
2022-08-17T11:27:59.446Z,42.82
2022-08-17T11:30:50.458Z,42.81
2022-08-17T11:33:39.498Z,42.86
2022-08-17T11:36:27.478Z,42.86
2022-08-17T11:39:18.721Z,42.91
2022-08-17T11:42:06.146Z,42.96
2022-08-17T11:44:47.536Z,42.88
2022-08-17T11:48:09.428Z,42.89
2022-08-17T11:51:06.994Z,42.83
2022-08-17T11:53:40.317Z,42.89
2022-08-17T11:56:33.952Z,43.50
2022-08-17T11:59:03.530Z,43.86
2022-08-17T12:01:52.796Z,43.83
2022-08-17T12:04:35.932Z,43.50
2022-08-17T12:07:14.353Z,43.25
2022-08-17T12:09:45.892Z,43.08
2022-08-17T12:12:19.925Z,42.97
2022-08-17T12:15:09.468Z,42.90
2022-08-17T12:17:26.525Z,42.91
2022-08-17T12:19:56.025Z,42.91
2022-08-17T12:22:29.866Z,42.91
2022-08-17T12:25:05.617Z,42.75
2022-08-17T12:27:48.956Z,43.99
2022-08-17T12:30:13.280Z,43.66
2022-08-17T12:32:43.393Z,43.24
2022-08-17T12:35:25.112Z,43.08
2022-08-17T12:40:32.222Z,42.91
2022-08-17T12:43:03.772Z,42.88
2022-08-17T12:45:39.161Z,42.86
2022-08-17T12:48:11.009Z,42.86
2022-08-17T12:50:42.030Z,42.86
2022-08-17T12:53:19.726Z,42.86
2022-08-17T12:55:50.245Z,42.91
2022-08-17T12:58:22.753Z,42.89
2022-08-17T13:00:55.313Z,42.95
2022-08-17T13:03:27.198Z,43.02
2022-08-17T13:06:04.063Z,42.24
2022-08-17T13:08:41.866Z,41.92
2022-08-17T13:11:20.273Z,42.59
2022-08-17T13:13:56.603Z,42.04
2022-08-17T13:16:28.629Z,42.24
2022-08-17T13:19:13.484Z,42.18
2022-08-17T13:21:48.700Z,43.07
2022-08-17T13:24:21.686Z,42.64
2022-08-17T13:26:56.393Z,42.02
2022-08-17T13:29:35.836Z,42.38
2022-08-17T13:32:13.346Z,41.79
2022-08-17T13:34:56.208Z,42.91
2022-08-17T13:37:33.786Z,41.78
2022-08-17T13:40:12.865Z,41.33
2022-08-17T13:42:52.628Z,41.26
2022-08-17T13:45:38.770Z,41.29
2022-08-17T13:48:27.876Z,42.77
2022-08-17T13:51:00.469Z,42.64
2022-08-17T13:53:32.911Z,42.24
2022-08-17T13:56:36.981Z,42.00
2022-08-17T13:58:53.026Z,42.09
2022-08-17T14:01:48.506Z,42.99
2022-08-17T14:04:19.274Z,42.70
2022-08-17T14:06:54.816Z,41.75
2022-08-17T14:09:27.239Z,41.50
2022-08-17T14:11:56.912Z,41.83
2022-08-17T14:14:26.505Z,41.82
2022-08-17T14:16:56.030Z,42.80
2022-08-17T14:19:25.658Z,42.66
2022-08-17T14:21:59.463Z,42.45
2022-08-17T14:24:30.965Z,42.18
2022-08-17T14:27:01.351Z,41.95
2022-08-17T14:29:31.782Z,43.40
2022-08-17T14:32:03.778Z,42.51
2022-08-17T14:34:33.453Z,41.94
2022-08-17T14:37:03.162Z,41.71
2022-08-17T14:39:33.487Z,41.71
2022-08-17T14:42:03.427Z,42.64
2022-08-17T14:44:33.228Z,42.64
2022-08-17T14:47:02.851Z,42.66
2022-08-17T14:49:32.664Z,42.56
2022-08-17T14:52:02.378Z,42.32
2022-08-17T14:54:34.283Z,42.17
2022-08-17T14:57:33.743Z,43.04
2022-08-17T14:59:36.785Z,42.80
2022-08-17T15:02:08.849Z,41.98
2022-08-17T15:04:43.391Z,41.79
2022-08-17T15:07:10.069Z,41.65
2022-08-17T15:09:39.684Z,41.73
2022-08-17T15:12:10.015Z,42.09
2022-08-17T15:14:39.557Z,42.40
2022-08-17T15:17:09.136Z,42.88
2022-08-17T15:19:38.744Z,42.73
2022-08-17T15:22:08.715Z,42.60
2022-08-17T15:24:38.241Z,42.31
2022-08-17T15:27:08.206Z,41.81
2022-08-17T15:29:37.917Z,41.49
2022-08-17T15:32:07.918Z,42.82
2022-08-17T15:34:38.117Z,42.66
2022-08-17T15:37:07.946Z,42.21
2022-08-17T15:39:37.714Z,42.03
2022-08-17T15:42:08.551Z,41.98
2022-08-17T15:44:39.949Z,41.99
2022-08-17T15:47:10.656Z,41.83
2022-08-17T15:49:42.590Z,42.98
2022-08-17T15:52:23.426Z,42.50
2022-08-17T15:54:55.218Z,41.83
2022-08-17T15:57:26.270Z,41.62
2022-08-17T15:59:58.816Z,41.55
2022-08-17T16:03:44.388Z,41.67
2022-08-17T16:05:11.310Z,41.65
2022-08-17T16:07:42.556Z,41.65
2022-08-17T16:10:16.750Z,42.16
2022-08-17T16:12:46.607Z,42.98
2022-08-17T16:15:16.270Z,42.70
2022-08-17T16:17:45.980Z,42.56
2022-08-17T16:20:20.148Z,42.47
2022-08-17T16:22:48.513Z,42.09
2022-08-17T16:25:23.214Z,41.62
2022-08-17T16:27:54.517Z,41.21
2022-08-17T16:30:25.644Z,42.50
2022-08-17T16:32:55.345Z,42.53
2022-08-17T16:35:27.070Z,42.33
2022-08-17T16:37:59.073Z,42.06
2022-08-17T16:40:29.378Z,42.01
2022-08-17T16:43:00.851Z,42.11
2022-08-17T16:45:32.591Z,42.15
2022-08-17T16:48:02.316Z,41.83
2022-08-17T16:50:32.638Z,42.84
2022-08-17T16:53:07.882Z,42.08
2022-08-17T16:55:37.598Z,41.87
2022-08-17T16:58:07.481Z,41.74
2022-08-17T17:00:37.295Z,41.78
2022-08-17T17:03:20.162Z,41.75
2022-08-17T17:05:58.652Z,41.77
2022-08-17T17:08:42.063Z,41.85
2022-08-17T17:11:17.091Z,42.16
2022-08-17T17:13:55.569Z,42.50
2022-08-17T17:16:33.924Z,42.37
2022-08-17T17:19:34.453Z,41.68
2022-08-17T17:22:26.080Z,41.56
2022-08-17T17:25:19.739Z,41.54
2022-08-17T17:28:06.094Z,41.61
2022-08-17T17:30:53.618Z,41.65
2022-08-17T17:33:29.623Z,41.79
2022-08-17T17:36:02.082Z,43.50
2022-08-17T17:38:33.647Z,43.50
2022-08-17T17:41:05.145Z,42.64
2022-08-17T17:43:39.760Z,41.87
2022-08-17T17:46:27.126Z,41.66
2022-08-17T17:48:43.610Z,41.61
2022-08-17T17:51:54.790Z,41.62
2022-08-17T17:54:35.056Z,41.65
2022-08-17T17:57:14.340Z,41.74
2022-08-17T17:59:58.852Z,42.04
2022-08-17T18:02:51.767Z,42.99
2022-08-17T18:05:23.714Z,42.32
2022-08-17T18:07:56.263Z,41.83
2022-08-17T18:10:31.683Z,41.69
2022-08-17T18:13:01.281Z,41.72
2022-08-17T18:15:39.937Z,41.76
2022-08-17T18:18:21.400Z,41.87
2022-08-17T18:20:55.957Z,41.95
2022-08-17T18:23:28.456Z,42.24
2022-08-17T18:25:57.473Z,42.76
2022-08-17T18:28:29.978Z,42.06
2022-08-17T18:31:20.044Z,41.81
2022-08-17T18:33:51.361Z,41.64
2022-08-17T18:36:32.647Z,41.52
2022-08-17T18:39:21.890Z,41.52
2022-08-17T18:41:53.920Z,41.81
2022-08-17T18:44:31.780Z,41.86
2022-08-17T18:47:18.664Z,42.93
2022-08-17T18:49:57.015Z,42.29
2022-08-17T18:52:31.993Z,41.89
2022-08-17T18:55:15.455Z,41.72
2022-08-17T18:57:48.907Z,41.76
2022-08-17T19:00:44.027Z,41.78
2022-08-17T19:03:22.763Z,41.87
2022-08-17T19:06:01.196Z,42.15
2022-08-17T19:08:33.709Z,42.86
2022-08-17T19:11:15.310Z,42.34
2022-08-17T19:14:04.173Z,42.04
2022-08-17T19:16:45.723Z,41.86
2022-08-17T19:19:30.255Z,41.87
2022-08-17T19:22:15.609Z,41.84
2022-08-17T19:24:47.795Z,41.87
2022-08-17T19:27:23.552Z,41.98
2022-08-17T19:30:07.619Z,42.94
2022-08-17T19:32:38.085Z,42.79
2022-08-17T19:35:13.621Z,42.27
2022-08-17T19:38:02.645Z,41.88
2022-08-17T19:41:00.507Z,41.67
2022-08-17T19:43:35.726Z,41.82
2022-08-17T19:46:20.114Z,41.83
2022-08-17T19:48:55.738Z,41.94
2022-08-17T19:51:49.087Z,42.90
2022-08-17T19:54:36.849Z,42.67
2022-08-17T19:57:27.145Z,42.14
2022-08-17T20:00:02.604Z,41.90
2022-08-17T20:02:47.409Z,41.87
2022-08-17T20:05:24.500Z,41.89
2022-08-17T20:08:02.782Z,42.14
2022-08-17T20:10:58.362Z,43.09
2022-08-17T20:13:33.595Z,42.65
2022-08-17T20:16:03.483Z,42.14
2022-08-17T20:18:43.982Z,41.98
2022-08-17T20:21:21.567Z,41.86
2022-08-17T20:23:58.023Z,41.88
2022-08-17T20:26:42.878Z,42.04
2022-08-17T20:29:20.020Z,42.87
2022-08-17T20:32:00.728Z,42.80
2022-08-17T20:34:37.411Z,42.31
2022-08-17T20:37:16.009Z,41.99
2022-08-17T20:39:47.453Z,41.88
2022-08-17T20:42:26.784Z,41.72
2022-08-17T20:45:02.743Z,42.18
2022-08-17T20:47:55.385Z,42.72
2022-08-17T20:50:38.693Z,42.77
2022-08-17T20:53:10.510Z,42.61
2022-08-17T20:55:52.377Z,42.42
2022-08-17T20:58:30.104Z,42.23
2022-08-17T21:01:02.444Z,41.78
2022-08-17T21:03:50.402Z,42.62
2022-08-17T21:06:17.653Z,42.80
2022-08-17T21:08:55.926Z,42.59
2022-08-17T21:11:59.980Z,42.48
2022-08-17T21:14:18.999Z,42.45
2022-08-17T21:17:24.964Z,42.43
2022-08-17T21:20:12.984Z,42.43
2022-08-17T21:23:08.158Z,42.27
2022-08-17T21:26:16.362Z,41.99
2022-08-17T21:29:29.893Z,42.03
2022-08-17T21:31:45.965Z,42.11
2022-08-17T21:34:25.719Z,42.22
2022-08-17T21:36:56.702Z,42.72
2022-08-17T21:39:33.006Z,42.42
2022-08-17T21:42:02.727Z,42.23
2022-08-17T21:44:37.452Z,42.12
2022-08-17T21:47:27.544Z,42.11
2022-08-17T21:49:57.613Z,42.13
2022-08-17T21:52:27.282Z,42.42
2022-08-17T21:54:59.056Z,42.84
2022-08-17T21:57:32.036Z,42.32
2022-08-17T22:00:03.342Z,42.10
2022-08-17T22:02:36.363Z,41.94
2022-08-17T22:05:12.033Z,41.91
2022-08-17T22:07:44.170Z,41.99
2022-08-17T22:10:41.439Z,42.21
2022-08-17T22:13:16.588Z,42.74
2022-08-17T22:16:28.112Z,42.42
2022-08-17T22:18:40.975Z,42.21
2022-08-17T22:21:10.622Z,41.92
2022-08-17T22:24:03.641Z,41.96
2022-08-17T22:27:04.495Z,42.21
2022-08-17T22:29:57.037Z,42.95
2022-08-17T22:34:56.325Z,42.31
2022-08-17T22:37:28.851Z,42.17
2022-08-17T22:40:01.464Z,41.95
2022-08-17T22:42:31.965Z,41.97
2022-08-17T22:45:01.465Z,42.31
2022-08-17T22:47:39.679Z,42.59
2022-08-17T22:50:12.471Z,42.76
2022-08-17T22:53:01.638Z,42.25
2022-08-17T22:55:50.843Z,42.13
2022-08-17T22:58:41.174Z,41.98
2022-08-17T23:01:32.123Z,42.00
2022-08-17T23:04:04.026Z,42.23
2022-08-17T23:06:36.618Z,43.12
2022-08-17T23:09:07.047Z,42.72
2022-08-17T23:11:51.171Z,42.29
2022-08-17T23:14:22.070Z,41.99
2022-08-17T23:16:52.545Z,41.96
2022-08-17T23:19:23.678Z,41.93
2022-08-17T23:21:55.237Z,42.58
2022-08-17T23:24:33.259Z,43.08
2022-08-17T23:27:03.157Z,42.72
2022-08-17T23:29:32.748Z,42.33
2022-08-17T23:32:02.373Z,42.13
2022-08-17T23:34:32.069Z,42.07
2022-08-17T23:37:02.919Z,42.04
2022-08-17T23:39:39.488Z,42.22
2022-08-17T23:42:10.482Z,43.30
2022-08-17T23:44:40.071Z,42.76
2022-08-17T23:47:09.941Z,42.42
2022-08-17T23:49:40.923Z,42.17
2022-08-17T23:52:15.035Z,42.15
2022-08-17T23:54:47.024Z,42.14
2022-08-17T23:57:18.987Z,42.14
2022-08-17T23:59:49.716Z,42.42
